Time;durP1;ratioP1;P1;durP2;ratioP2;P2;SDS_P1;SDS_P2;PMS_P1;PMS_P2;Temp;Humidity;BMP_temperature;BMP_pressure;BME280_temperature;BME280_humidity;BME280_pressure;Samples;Min_cycle;Max_cycle;Signal;HPM_P1;HPM_P2
2023/12/20 06:11:45;;;;;;;2.63;1.00;;;;;;;;;;6215671;22;20024;-77
2023/12/20 06:14:31;;;;;;;0.65;0.60;;;;;;;;;;6211785;23;20000;-78
2023/12/20 06:17:16;;;;;;;2.92;0.85;;;;;;;;;;6214030;23;20004;-91
2023/12/20 06:20:02;;;;;;;2.08;0.80;;;;;;;;;;6222871;23;19996;-91
2023/12/20 06:22:47;;;;;;;1.40;0.80;;;;;;;;;;6219944;23;20035;-91
2023/12/20 06:25:32;;;;;;;1.30;0.95;;;;;;;;;;6221277;23;20364;-91
2023/12/20 06:28:21;;;;;;;1.90;0.80;;;;;;;;;;6219454;23;20384;-91
2023/12/20 06:31:06;;;;;;;6.43;1.00;;;;;;;;;;6227009;23;19992;-92
2023/12/20 06:33:57;;;;;;;1.58;0.90;;;;;;;;;;6223518;23;19998;-84
2023/12/20 06:36:42;;;;;;;1.58;1.00;;;;;;;;;;6214718;23;20080;-84
2023/12/20 06:39:28;;;;;;;0.90;0.68;;;;;;;;;;6214223;23;20384;-85
2023/12/20 06:42:13;;;;;;;0.93;0.73;;;;;;;;;;6215287;23;20000;-84
2023/12/20 06:45:01;;;;;;;0.95;0.85;;;;;;;;;;6215297;23;20003;-82
2023/12/20 06:47:46;;;;;;;1.63;0.82;;;;;;;;;;6215938;23;20058;-83
2023/12/20 06:50:32;;;;;;;0.90;0.80;;;;;;;;;;6214883;23;20420;-82
2023/12/20 06:53:17;;;;;;;0.80;0.73;;;;;;;;;;6210560;23;20011;-83
2023/12/20 06:56:02;;;;;;;1.63;0.75;;;;;;;;;;6215161;23;20007;-83
2023/12/20 06:58:48;;;;;;;1.45;0.82;;;;;;;;;;6216054;23;20075;-82
2023/12/20 07:01:33;;;;;;;1.52;0.73;;;;;;;;;;6212841;23;20000;-80
2023/12/20 07:04:21;;;;;;;2.75;0.85;;;;;;;;;;6214539;23;20000;-80
2023/12/20 07:07:07;;;;;;;2.92;0.75;;;;;;;;;;6216971;23;20059;-80
2023/12/20 07:09:52;;;;;;;3.90;0.80;;;;;;;;;;6214488;22;19996;-80
2023/12/20 07:12:37;;;;;;;1.27;0.60;;;;;;;;;;6228284;23;20020;-78
2023/12/20 07:15:23;;;;;;;0.93;0.63;;;;;;;;;;6221125;23;20015;-80
2023/12/20 07:18:08;;;;;;;0.95;0.85;;;;;;;;;;6233741;23;19996;-81
2023/12/20 07:20:55;;;;;;;1.17;1.08;;;;;;;;;;6233157;23;20015;-81
2023/12/20 07:23:41;;;;;;;1.60;0.70;;;;;;;;;;6234610;23;20021;-80
2023/12/20 07:26:25;;;;;;;2.35;1.20;;;;;;;;;;6258021;23;20014;-79
2023/12/20 07:29:20;;;;;;;5.05;2.20;;;;;;;;;;6230484;23;20192;-79
2023/12/20 07:32:05;;;;;;;4.32;1.83;;;;;;;;;;6217711;23;20452;-80
2023/12/20 07:34:50;;;;;;;5.03;1.40;;;;;;;;;;6217106;23;20004;-79
2023/12/20 07:37:36;;;;;;;2.22;1.10;;;;;;;;;;6217066;23;20004;-80
2023/12/20 07:40:21;;;;;;;1.25;1.00;;;;;;;;;;6215991;23;20000;-81
2023/12/20 07:43:06;;;;;;;2.92;1.27;;;;;;;;;;6216649;23;20074;-82
2023/12/20 07:45:51;;;;;;;2.53;0.95;;;;;;;;;;6215860;23;20084;-81
2023/12/20 07:48:37;;;;;;;1.73;1.15;;;;;;;;;;6215929;23;20057;-83
2023/12/20 07:51:22;;;;;;;2.30;1.35;;;;;;;;;;6214854;23;20007;-81
2023/12/20 07:54:08;;;;;;;2.25;1.40;;;;;;;;;;6236196;23;20408;-80
2023/12/20 07:56:53;;;;;;;4.07;1.70;;;;;;;;;;6214617;23;20008;-79
2023/12/20 07:59:38;;;;;;;3.72;3.17;;;;;;;;;;6214384;23;20492;-83
2023/12/20 08:02:23;;;;;;;3.92;1.63;;;;;;;;;;6210138;23;19997;-76
2023/12/20 08:05:09;;;;;;;2.58;1.52;;;;;;;;;;6213444;23;20449;-78
2023/12/20 08:07:54;;;;;;;4.43;2.45;;;;;;;;;;6213881;23;20035;-78
2023/12/20 08:10:39;;;;;;;4.10;1.95;;;;;;;;;;6213318;23;20004;-78
2023/12/20 08:13:25;;;;;;;3.80;1.77;;;;;;;;;;6235002;23;20035;-78
2023/12/20 08:16:13;;;;;;;2.92;2.03;;;;;;;;;;6213437;23;20095;-76
2023/12/20 08:18:58;;;;;;;2.83;2.03;;;;;;;;;;6212684;23;20008;-77
2023/12/20 08:21:43;;;;;;;4.80;2.20;;;;;;;;;;6213630;23;20094;-79
2023/12/20 08:24:32;;;;;;;4.65;2.25;;;;;;;;;;6207708;23;19993;-79
2023/12/20 08:27:25;;;;;;;2.83;2.17;;;;;;;;;;6232853;23;20036;-78
2023/12/20 08:30:11;;;;;;;2.90;2.22;;;;;;;;;;6214197;23;20368;-79
2023/12/20 08:32:56;;;;;;;5.40;2.20;;;;;;;;;;6213194;23;20464;-78
2023/12/20 08:35:41;;;;;;;7.20;2.55;;;;;;;;;;6213157;23;20336;-79
2023/12/20 08:38:26;;;;;;;5.43;2.88;;;;;;;;;;6212265;23;19996;-78
2023/12/20 08:41:12;;;;;;;4.43;2.08;;;;;;;;;;6212961;23;20298;-78
2023/12/20 08:43:57;;;;;;;3.25;2.50;;;;;;;;;;6213126;23;20079;-77
2023/12/20 08:46:43;;;;;;;7.13;2.25;;;;;;;;;;6212782;23;20069;-77
2023/12/20 08:49:28;;;;;;;5.30;2.60;;;;;;;;;;6211616;23;20077;-76
2023/12/20 08:52:13;;;;;;;3.85;2.55;;;;;;;;;;6213538;23;20492;-76
2023/12/20 08:54:58;;;;;;;3.03;1.98;;;;;;;;;;6213391;23;20042;-76
2023/12/20 08:57:43;;;;;;;3.45;2.10;;;;;;;;;;6213741;23;20087;-78
2023/12/20 09:00:29;;;;;;;4.25;2.03;;;;;;;;;;6215534;23;20008;-76
2023/12/20 09:03:14;;;;;;;3.35;2.25;;;;;;;;;;6214732;23;19996;-77
2023/12/20 09:06:00;;;;;;;2.13;1.92;;;;;;;;;;6215655;23;19992;-78
2023/12/20 09:08:45;;;;;;;4.13;2.33;;;;;;;;;;6214505;23;20002;-78
2023/12/20 09:11:30;;;;;;;4.20;2.30;;;;;;;;;;6215411;23;20215;-79
2023/12/20 09:14:16;;;;;;;5.60;2.20;;;;;;;;;;6214493;23;20633;-77
2023/12/20 09:17:03;;;;;;;5.25;2.20;;;;;;;;;;6214693;23;20459;-76
2023/12/20 09:19:48;;;;;;;4.20;2.03;;;;;;;;;;6214067;23;20042;-77
2023/12/20 09:22:34;;;;;;;4.13;2.42;;;;;;;;;;6214417;23;20331;-78
2023/12/20 09:25:19;;;;;;;8.23;2.65;;;;;;;;;;6215821;23;20075;-76
2023/12/20 09:28:05;;;;;;;4.72;1.92;;;;;;;;;;6215189;23;20040;-77
2023/12/20 09:30:50;;;;;;;6.43;2.33;;;;;;;;;;6214113;23;20090;-77
2023/12/20 09:33:35;;;;;;;7.90;2.65;;;;;;;;;;6214652;23;20018;-78
2023/12/20 09:36:21;;;;;;;5.35;2.60;;;;;;;;;;6215542;23;20057;-77
2023/12/20 09:39:06;;;;;;;3.22;1.90;;;;;;;;;;6215142;23;20000;-79
2023/12/20 09:41:59;;;;;;;5.88;2.10;;;;;;;;;;6214146;23;20011;-76
2023/12/20 09:44:44;;;;;;;6.30;2.45;;;;;;;;;;6214426;23;19996;-77
2023/12/20 09:47:29;;;;;;;11.55;3.70;;;;;;;;;;6215588;23;20474;-81
2023/12/20 09:50:15;;;;;;;7.57;3.22;;;;;;;;;;6216538;23;19996;-80
2023/12/20 09:53:02;;;;;;;7.00;1.95;;;;;;;;;;6215917;23;20004;-83
2023/12/20 09:55:47;;;;;;;3.67;1.50;;;;;;;;;;6215433;23;20004;-82
2023/12/20 09:58:33;;;;;;;5.28;1.73;;;;;;;;;;6215209;23;20004;-82
2023/12/20 10:01:18;;;;;;;4.00;1.30;;;;;;;;;;6216131;23;20150;-81
2023/12/20 10:04:08;;;;;;;7.30;1.83;;;;;;;;;;6214336;23;20075;-80
2023/12/20 10:06:56;;;;;;;3.72;1.38;;;;;;;;;;6215464;23;20003;-79
2023/12/20 10:09:41;;;;;;;6.03;1.85;;;;;;;;;;6213593;22;20013;-81
2023/12/20 10:12:27;;;;;;;6.57;1.20;;;;;;;;;;6214203;23;20020;-81
2023/12/20 10:15:12;;;;;;;5.68;1.55;;;;;;;;;;6236407;23;20444;-82
2023/12/20 10:17:58;;;;;;;4.85;1.50;;;;;;;;;;6215561;23;20069;-83
2023/12/20 10:20:44;;;;;;;3.50;1.75;;;;;;;;;;6214966;23;20011;-82
2023/12/20 10:23:30;;;;;;;6.40;1.48;;;;;;;;;;6215056;23;19992;-82
2023/12/20 10:26:20;;;;;;;4.15;2.38;;;;;;;;;;6213376;23;20079;-82
2023/12/20 10:29:05;;;;;;;4.03;1.48;;;;;;;;;;6215014;23;20011;-82
2023/12/20 10:31:50;;;;;;;4.15;1.98;;;;;;;;;;6213825;23;20008;-82
2023/12/20 10:34:35;;;;;;;3.35;1.40;;;;;;;;;;6215459;23;20023;-82
2023/12/20 10:37:21;;;;;;;7.55;1.80;;;;;;;;;;6215588;23;20503;-84
2023/12/20 10:40:06;;;;;;;4.45;1.95;;;;;;;;;;6216039;23;20090;-83
2023/12/20 10:42:52;;;;;;;13.70;2.45;;;;;;;;;;6214938;23;20039;-82
2023/12/20 10:45:37;;;;;;;4.90;1.73;;;;;;;;;;6212022;23;20339;-82
2023/12/20 10:48:28;;;;;;;5.80;1.40;;;;;;;;;;6214788;23;20038;-81
2023/12/20 10:51:17;;;;;;;3.95;1.67;;;;;;;;;;6214673;23;20000;-81
2023/12/20 10:54:03;;;;;;;8.38;2.65;;;;;;;;;;6215116;23;20000;-80
2023/12/20 10:56:49;;;;;;;5.53;1.92;;;;;;;;;;6214971;23;20046;-80
2023/12/20 10:59:36;;;;;;;4.82;1.67;;;;;;;;;;6214085;23;20000;-80
2023/12/20 11:02:21;;;;;;;4.72;1.75;;;;;;;;;;6213390;23;20061;-84
2023/12/20 11:05:15;;;;;;;5.50;1.60;;;;;;;;;;6214738;23;20000;-83
2023/12/20 11:08:03;;;;;;;9.43;2.65;;;;;;;;;;6192840;23;20071;-79
2023/12/20 11:11:04;;;;;;;8.38;1.40;;;;;;;;;;6214054;23;20387;-83
2023/12/20 11:14:00;;;;;;;4.10;1.40;;;;;;;;;;6215038;23;20294;-86
2023/12/20 11:16:45;;;;;;;6.70;1.67;;;;;;;;;;6214894;23;20000;-89
2023/12/20 11:19:38;;;;;;;3.60;1.90;;;;;;;;;;6209317;23;20000;-88
2023/12/20 11:22:27;;;;;;;3.15;1.58;;;;;;;;;;6214439;23;20004;-88
2023/12/20 11:25:13;;;;;;;2.88;1.30;;;;;;;;;;6218163;23;20080;-88
2023/12/20 11:28:11;;;;;;;7.20;1.63;;;;;;;;;;6216134;23;20032;-89
2023/12/20 11:31:02;;;;;;;5.25;1.55;;;;;;;;;;6215638;23;20058;-88
2023/12/20 11:33:48;;;;;;;4.47;1.48;;;;;;;;;;6216301;23;20039;-88
2023/12/20 11:36:33;;;;;;;7.53;1.70;;;;;;;;;;6215330;23;20054;-88
2023/12/20 11:39:20;;;;;;;5.10;1.65;;;;;;;;;;6216119;23;20006;-89
2023/12/20 11:42:06;;;;;;;4.60;1.90;;;;;;;;;;6216697;23;20053;-88
2023/12/20 11:44:51;;;;;;;5.40;1.77;;;;;;;;;;6216074;23;20396;-88
2023/12/20 11:47:37;;;;;;;3.95;1.70;;;;;;;;;;6216093;23;19996;-89
2023/12/20 11:50:23;;;;;;;5.68;1.67;;;;;;;;;;6214517;23;20455;-88
2023/12/20 11:53:10;;;;;;;5.07;1.83;;;;;;;;;;6211835;23;20023;-88
2023/12/20 11:55:55;;;;;;;6.50;1.52;;;;;;;;;;6214477;23;20000;-89
2023/12/20 11:58:41;;;;;;;4.28;1.48;;;;;;;;;;6209290;23;20000;-89
2023/12/20 12:01:26;;;;;;;4.85;1.75;;;;;;;;;;6215112;23;20536;-88
2023/12/20 12:04:12;;;;;;;5.32;1.65;;;;;;;;;;6212435;23;20208;-88
2023/12/20 12:06:57;;;;;;;3.67;1.65;;;;;;;;;;6215982;23;20333;-88
2023/12/20 12:09:43;;;;;;;7.70;2.63;;;;;;;;;;6216332;22;20376;-88
2023/12/20 12:12:29;;;;;;;10.90;2.65;;;;;;;;;;6214998;23;20350;-88
2023/12/20 12:15:15;;;;;;;7.57;1.90;;;;;;;;;;6212569;23;20008;-87
2023/12/20 12:18:00;;;;;;;11.77;2.05;;;;;;;;;;6212978;23;20452;-87
2023/12/20 12:20:46;;;;;;;4.53;1.70;;;;;;;;;;6215723;23;20074;-88
2023/12/20 12:23:31;;;;;;;8.40;1.73;;;;;;;;;;6213744;23;20325;-88
2023/12/20 12:26:16;;;;;;;7.70;1.90;;;;;;;;;;6216133;23;20049;-87
2023/12/20 12:29:02;;;;;;;5.32;1.63;;;;;;;;;;6194122;23;20000;-87
2023/12/20 12:31:47;;;;;;;4.43;1.55;;;;;;;;;;6216686;23;20169;-87
2023/12/20 12:34:34;;;;;;;5.22;2.30;;;;;;;;;;6216833;23;20004;-88
2023/12/20 12:37:19;;;;;;;6.18;1.98;;;;;;;;;;6212883;23;20007;-88
2023/12/20 12:40:05;;;;;;;6.78;1.80;;;;;;;;;;6196625;23;20077;-87
2023/12/20 12:42:50;;;;;;;6.78;1.85;;;;;;;;;;6217704;23;20071;-87
2023/12/20 12:45:36;;;;;;;5.30;1.50;;;;;;;;;;6216917;23;20000;-87
2023/12/20 12:48:21;;;;;;;5.50;1.40;;;;;;;;;;6218614;23;20004;-87
2023/12/20 12:51:07;;;;;;;6.65;1.85;;;;;;;;;;6218164;23;20003;-87
2023/12/20 12:53:53;;;;;;;3.90;1.75;;;;;;;;;;6223578;23;19992;-88
2023/12/20 12:56:38;;;;;;;6.82;2.47;;;;;;;;;;6221864;23;20008;-87
2023/12/20 12:59:23;;;;;;;3.75;1.50;;;;;;;;;;6217477;23;20004;-87
2023/12/20 13:02:09;;;;;;;6.35;1.48;;;;;;;;;;6216456;23;20004;-87
2023/12/20 13:04:54;;;;;;;6.80;2.20;;;;;;;;;;6217516;23;20097;-88
2023/12/20 13:07:39;;;;;;;6.57;1.95;;;;;;;;;;6217304;23;20007;-90
2023/12/20 13:10:25;;;;;;;5.88;1.95;;;;;;;;;;6215733;23;20374;-90
2023/12/20 13:13:10;;;;;;;4.85;1.98;;;;;;;;;;6217014;23;20511;-89
2023/12/20 13:15:56;;;;;;;5.93;2.35;;;;;;;;;;6218390;23;19999;-91
2023/12/20 13:18:42;;;;;;;6.40;1.92;;;;;;;;;;6219215;23;20000;-87
2023/12/20 13:21:27;;;;;;;6.45;2.38;;;;;;;;;;6215986;23;20000;-85
2023/12/20 13:24:12;;;;;;;5.43;1.70;;;;;;;;;;6217161;23;20049;-85
2023/12/20 13:26:58;;;;;;;5.43;2.03;;;;;;;;;;6217029;23;20071;-87
2023/12/20 13:29:43;;;;;;;5.85;1.70;;;;;;;;;;6219464;23;20000;-87
2023/12/20 13:32:29;;;;;;;7.57;2.10;;;;;;;;;;6226561;23;20062;-89
2023/12/20 13:35:14;;;;;;;5.57;1.90;;;;;;;;;;6221272;23;20011;-87
2023/12/20 13:38:00;;;;;;;7.35;1.65;;;;;;;;;;6221096;23;20093;-88
2023/12/20 13:40:49;;;;;;;3.80;1.45;;;;;;;;;;6220130;23;20032;-88
2023/12/20 13:43:34;;;;;;;3.33;1.42;;;;;;;;;;6219660;23;19992;-87
2023/12/20 13:46:19;;;;;;;3.40;1.55;;;;;;;;;;6220395;23;20007;-87
2023/12/20 13:49:07;;;;;;;3.30;1.10;;;;;;;;;;6220071;23;20056;-88
2023/12/20 13:51:54;;;;;;;8.52;1.60;;;;;;;;;;6216926;23;20325;-85
2023/12/20 13:54:40;;;;;;;6.38;1.40;;;;;;;;;;6238383;23;20468;-87
2023/12/20 13:57:25;;;;;;;4.78;1.38;;;;;;;;;;6216979;23;20004;-88
2023/12/20 14:00:14;;;;;;;2.75;1.20;;;;;;;;;;6217482;23;20007;-87
2023/12/20 14:02:59;;;;;;;6.95;1.83;;;;;;;;;;6238137;23;20094;-87
2023/12/20 14:05:44;;;;;;;5.80;1.35;;;;;;;;;;6218062;23;19996;-86
2023/12/20 14:08:30;;;;;;;2.47;1.30;;;;;;;;;;6215880;23;20003;-88
2023/12/20 14:11:15;;;;;;;4.95;1.08;;;;;;;;;;6215611;23;20031;-88
2023/12/20 14:14:01;;;;;;;5.05;1.38;;;;;;;;;;6196667;23;20004;-86
2023/12/20 14:16:47;;;;;;;4.93;1.35;;;;;;;;;;6219016;23;20059;-86
2023/12/20 14:19:35;;;;;;;4.15;1.45;;;;;;;;;;6216967;23;20007;-89
2023/12/20 14:22:20;;;;;;;5.72;1.48;;;;;;;;;;6216003;23;20008;-84
2023/12/20 14:25:06;;;;;;;5.55;2.33;;;;;;;;;;6216815;23;19996;-87
2023/12/20 14:27:51;;;;;;;5.22;2.22;;;;;;;;;;6217593;23;20006;-91
2023/12/20 14:30:38;;;;;;;6.25;2.05;;;;;;;;;;6218624;23;20007;-91
2023/12/20 14:33:24;;;;;;;5.13;1.42;;;;;;;;;;6218692;23;20007;-91
2023/12/20 14:36:11;;;;;;;4.10;1.55;;;;;;;;;;6196405;23;20322;-86
2023/12/20 14:38:57;;;;;;;4.07;1.52;;;;;;;;;;6216729;23;20000;-84
2023/12/20 14:41:42;;;;;;;7.85;2.22;;;;;;;;;;6214642;23;20090;-85
2023/12/20 14:44:27;;;;;;;5.03;1.40;;;;;;;;;;6216291;23;20031;-84
2023/12/20 14:47:14;;;;;;;6.25;1.60;;;;;;;;;;6214540;23;20004;-85
2023/12/20 14:50:00;;;;;;;7.32;1.63;;;;;;;;;;6216802;23;20087;-85
2023/12/20 14:52:45;;;;;;;5.28;1.50;;;;;;;;;;6211051;23;20036;-89
2023/12/20 14:55:30;;;;;;;3.63;1.52;;;;;;;;;;6215952;23;20051;-80
2023/12/20 14:58:16;;;;;;;5.75;2.45;;;;;;;;;;6214355;23;20062;-78
2023/12/20 15:01:01;;;;;;;5.65;1.98;;;;;;;;;;6227569;23;20456;-83
2023/12/20 15:03:46;;;;;;;6.90;1.50;;;;;;;;;;6215436;23;20000;-83
2023/12/20 15:06:33;;;;;;;6.20;1.60;;;;;;;;;;6217809;23;20000;-83
2023/12/20 15:09:21;;;;;;;7.57;2.15;;;;;;;;;;6217213;23;20329;-82
2023/12/20 15:12:07;;;;;;;4.20;2.10;;;;;;;;;;6234704;23;20095;-83
2023/12/20 15:14:52;;;;;;;5.30;1.90;;;;;;;;;;6238492;23;20008;-84
2023/12/20 15:17:37;;;;;;;9.25;2.60;;;;;;;;;;6243137;23;20052;-84
2023/12/20 15:20:22;;;;;;;3.13;1.42;;;;;;;;;;6243727;22;20079;-84
2023/12/20 15:23:08;;;;;;;5.28;2.00;;;;;;;;;;6242764;22;20027;-85
2023/12/20 15:25:53;;;;;;;3.30;1.40;;;;;;;;;;6243118;22;19999;-85
2023/12/20 15:28:38;;;;;;;5.75;1.33;;;;;;;;;;6244704;22;20015;-85
2023/12/20 15:31:26;;;;;;;10.43;2.85;;;;;;;;;;6225884;23;20048;-84
2023/12/20 15:34:12;;;;;;;4.68;1.40;;;;;;;;;;6218829;23;20329;-84
2023/12/20 15:36:58;;;;;;;6.13;2.03;;;;;;;;;;6218616;23;20429;-84
2023/12/20 15:39:43;;;;;;;7.43;2.17;;;;;;;;;;6218801;23;20427;-82
2023/12/20 15:42:30;;;;;;;2.65;1.88;;;;;;;;;;6215154;23;20333;-86
2023/12/20 15:45:15;;;;;;;5.07;2.15;;;;;;;;;;6216514;23;20541;-85
2023/12/20 15:48:01;;;;;;;5.93;1.50;;;;;;;;;;6221022;23;20323;-87
2023/12/20 15:50:46;;;;;;;8.43;1.83;;;;;;;;;;6222440;23;20000;-90
2023/12/20 15:53:31;;;;;;;5.38;2.10;;;;;;;;;;6216855;23;20000;-85
2023/12/20 15:56:17;;;;;;;6.90;2.10;;;;;;;;;;6214047;23;20008;-86
2023/12/20 15:59:06;;;;;;;4.32;2.05;;;;;;;;;;6217654;23;20000;-91
2023/12/20 16:01:54;;;;;;;7.82;2.88;;;;;;;;;;6216570;23;20004;-90
2023/12/20 16:04:39;;;;;;;5.25;1.95;;;;;;;;;;6219618;23;20023;-91
2023/12/20 16:07:24;;;;;;;4.13;1.52;;;;;;;;;;6220100;23;19999;-89
2023/12/20 16:10:10;;;;;;;7.70;1.65;;;;;;;;;;6219478;23;20794;-89
2023/12/20 16:12:55;;;;;;;4.63;2.15;;;;;;;;;;6239229;23;20063;-87
2023/12/20 16:15:41;;;;;;;4.03;2.03;;;;;;;;;;6199008;23;20000;-88
2023/12/20 16:18:28;;;;;;;4.32;1.70;;;;;;;;;;6218810;23;20004;-87
2023/12/20 16:21:13;;;;;;;4.85;1.70;;;;;;;;;;6216615;23;20000;-89
2023/12/20 16:23:58;;;;;;;8.30;1.77;;;;;;;;;;6239586;23;19999;-89
2023/12/20 16:26:44;;;;;;;2.50;1.50;;;;;;;;;;6218965;23;20004;-87
2023/12/20 16:29:29;;;;;;;5.13;2.00;;;;;;;;;;6216852;23;19992;-88
2023/12/20 16:32:14;;;;;;;3.53;1.73;;;;;;;;;;6221252;23;20004;-87
2023/12/20 16:35:01;;;;;;;3.33;2.00;;;;;;;;;;6239940;23;20104;-86
2023/12/20 16:37:46;;;;;;;4.78;1.60;;;;;;;;;;6238325;23;20083;-87
2023/12/20 16:40:31;;;;;;;8.90;2.08;;;;;;;;;;6216818;23;20008;-87
2023/12/20 16:43:17;;;;;;;4.28;1.90;;;;;;;;;;6220112;23;20000;-89
2023/12/20 16:46:02;;;;;;;3.75;1.58;;;;;;;;;;6217797;23;19996;-89
2023/12/20 16:48:47;;;;;;;6.50;2.38;;;;;;;;;;6218842;23;20004;-90
2023/12/20 16:51:33;;;;;;;3.28;1.70;;;;;;;;;;6218554;23;20062;-90
2023/12/20 16:54:19;;;;;;;6.47;2.00;;;;;;;;;;6220704;23;20003;-88
2023/12/20 16:57:04;;;;;;;4.78;1.65;;;;;;;;;;6244245;23;20004;-87
2023/12/20 16:59:49;;;;;;;5.95;1.77;;;;;;;;;;6218139;23;19996;-88
2023/12/20 17:02:35;;;;;;;2.88;1.80;;;;;;;;;;6217032;23;20051;-87
2023/12/20 17:05:20;;;;;;;4.72;1.70;;;;;;;;;;6211783;23;20004;-83
2023/12/20 17:08:06;;;;;;;7.50;2.25;;;;;;;;;;6195365;23;19996;-83
2023/12/20 17:10:51;;;;;;;2.92;1.40;;;;;;;;;;6215426;23;20004;-85
2023/12/20 17:13:36;;;;;;;3.67;1.60;;;;;;;;;;6216002;23;20016;-86
2023/12/20 17:16:21;;;;;;;8.15;1.67;;;;;;;;;;6214137;23;20377;-86
2023/12/20 17:19:07;;;;;;;4.72;2.10;;;;;;;;;;6216487;23;20062;-87
2023/12/20 17:21:52;;;;;;;8.13;2.95;;;;;;;;;;6215896;23;20012;-83
2023/12/20 17:24:37;;;;;;;3.70;1.80;;;;;;;;;;6209728;23;20004;-88
2023/12/20 17:27:23;;;;;;;5.45;2.00;;;;;;;;;;6216716;23;19996;-89
2023/12/20 17:30:08;;;;;;;6.75;1.58;;;;;;;;;;6217549;23;20003;-89
2023/12/20 17:32:54;;;;;;;2.30;1.50;;;;;;;;;;6238190;23;20027;-90
2023/12/20 17:35:39;;;;;;;6.03;1.90;;;;;;;;;;6218176;23;20348;-89
2023/12/20 17:38:24;;;;;;;6.10;1.75;;;;;;;;;;6217271;23;20057;-89
2023/12/20 17:41:10;;;;;;;2.88;1.73;;;;;;;;;;6212142;23;19996;-88
2023/12/20 17:43:56;;;;;;;4.10;1.88;;;;;;;;;;6217327;23;20007;-89
2023/12/20 17:46:41;;;;;;;5.72;1.80;;;;;;;;;;6238673;23;20443;-87
2023/12/20 17:49:26;;;;;;;3.92;1.60;;;;;;;;;;6238296;23;20023;-82
2023/12/20 17:52:12;;;;;;;5.25;1.83;;;;;;;;;;6214888;23;20004;-79
2023/12/20 17:54:57;;;;;;;3.75;1.63;;;;;;;;;;6215222;23;20467;-79
2023/12/20 17:57:42;;;;;;;3.83;1.48;;;;;;;;;;6208887;23;20012;-78
2023/12/20 18:00:28;;;;;;;4.45;1.90;;;;;;;;;;6210874;23;20035;-78
2023/12/20 18:03:13;;;;;;;4.60;1.83;;;;;;;;;;6230869;23;19996;-80
2023/12/20 18:05:58;;;;;;;6.72;1.98;;;;;;;;;;6212852;23;20427;-78
2023/12/20 18:08:44;;;;;;;3.20;1.55;;;;;;;;;;6214616;23;19996;-78
2023/12/20 18:11:29;;;;;;;3.83;1.52;;;;;;;;;;6208726;23;20016;-78
2023/12/20 18:14:14;;;;;;;6.22;2.25;;;;;;;;;;6214706;23;20071;-78
2023/12/20 18:16:59;;;;;;;6.97;1.85;;;;;;;;;;6236140;23;20058;-79
2023/12/20 18:19:44;;;;;;;3.22;1.98;;;;;;;;;;6215047;23;19996;-79
2023/12/20 18:22:30;;;;;;;5.13;1.50;;;;;;;;;;6213005;23;20404;-78
2023/12/20 18:25:15;;;;;;;2.55;1.08;;;;;;;;;;6214838;23;20394;-78
2023/12/20 18:28:00;;;;;;;3.08;1.38;;;;;;;;;;6236099;23;20054;-79
2023/12/20 18:30:46;;;;;;;6.28;1.92;;;;;;;;;;6214465;23;20015;-79
2023/12/20 18:33:33;;;;;;;4.78;1.70;;;;;;;;;;6211740;23;20004;-77
2023/12/20 18:36:19;;;;;;;3.15;1.10;;;;;;;;;;6214685;23;20000;-78
2023/12/20 18:39:04;;;;;;;3.17;1.67;;;;;;;;;;6213832;23;19996;-78
2023/12/20 18:41:49;;;;;;;6.78;3.03;;;;;;;;;;6212307;23;20033;-77
2023/12/20 18:44:35;;;;;;;4.95;1.70;;;;;;;;;;6214721;23;19996;-77
2023/12/20 18:47:20;;;;;;;2.60;1.42;;;;;;;;;;6215438;23;20468;-78
2023/12/20 18:50:08;;;;;;;2.75;1.30;;;;;;;;;;6214694;23;20318;-77
2023/12/20 18:52:53;;;;;;;2.85;1.17;;;;;;;;;;6224999;23;20362;-79
2023/12/20 18:55:38;;;;;;;7.45;1.50;;;;;;;;;;6214574;23;20003;-77
2023/12/20 18:58:27;;;;;;;4.20;1.80;;;;;;;;;;6214942;23;20090;-78
2023/12/20 19:01:12;;;;;;;2.42;1.42;;;;;;;;;;6213638;23;20000;-77
2023/12/20 19:03:57;;;;;;;5.35;2.10;;;;;;;;;;6236098;23;20088;-79
2023/12/20 19:06:43;;;;;;;2.80;1.23;;;;;;;;;;6214172;23;20007;-77
2023/12/20 19:09:29;;;;;;;4.32;1.45;;;;;;;;;;6208939;22;19996;-79
2023/12/20 19:12:16;;;;;;;2.85;1.80;;;;;;;;;;6197822;23;20453;-78
2023/12/20 19:15:01;;;;;;;6.93;1.45;;;;;;;;;;6227952;23;20004;-81
2023/12/20 19:17:46;;;;;;;4.18;1.63;;;;;;;;;;6206805;23;20147;-78
2023/12/20 19:20:32;;;;;;;4.78;2.08;;;;;;;;;;6212970;23;20012;-79
2023/12/20 19:23:18;;;;;;;3.10;1.58;;;;;;;;;;6214301;23;20000;-79
2023/12/20 19:26:03;;;;;;;4.57;1.88;;;;;;;;;;6212796;23;20071;-79
2023/12/20 19:28:49;;;;;;;6.57;2.10;;;;;;;;;;6235273;23;20018;-79
2023/12/20 19:31:34;;;;;;;3.78;1.73;;;;;;;;;;6209058;23;20035;-79
2023/12/20 19:34:20;;;;;;;6.07;2.15;;;;;;;;;;6213754;23;20000;-78
2023/12/20 19:37:05;;;;;;;5.72;2.05;;;;;;;;;;6214320;23;20085;-78
2023/12/20 19:39:50;;;;;;;6.22;1.63;;;;;;;;;;6214795;23;20004;-78
2023/12/20 19:42:37;;;;;;;7.85;1.95;;;;;;;;;;6213681;23;20058;-78
2023/12/20 19:45:22;;;;;;;5.22;1.80;;;;;;;;;;6213254;23;20000;-79
2023/12/20 19:48:07;;;;;;;7.35;2.20;;;;;;;;;;6193421;23;20000;-79
2023/12/20 19:50:53;;;;;;;2.38;1.70;;;;;;;;;;6214034;23;20193;-79
2023/12/20 19:53:39;;;;;;;5.63;1.77;;;;;;;;;;6212456;23;20028;-80
2023/12/20 19:56:25;;;;;;;4.65;2.05;;;;;;;;;;6213867;23;20007;-85
2023/12/20 19:59:11;;;;;;;4.30;2.10;;;;;;;;;;6215663;23;20364;-85
2023/12/20 20:01:56;;;;;;;5.45;1.77;;;;;;;;;;6212883;23;20174;-86
2023/12/20 20:04:41;;;;;;;6.80;1.75;;;;;;;;;;6215483;23;20373;-86
2023/12/20 20:07:26;;;;;;;3.38;1.52;;;;;;;;;;6215524;23;20083;-86
2023/12/20 20:10:11;;;;;;;6.20;2.83;;;;;;;;;;6216316;23;20167;-83
2023/12/20 20:12:57;;;;;;;5.97;1.95;;;;;;;;;;6184387;23;20145;-84
2023/12/20 20:15:42;;;;;;;7.22;2.08;;;;;;;;;;6215410;23;20062;-85
2023/12/20 20:18:27;;;;;;;3.35;1.90;;;;;;;;;;6232434;23;20000;-85
2023/12/20 20:21:12;;;;;;;6.25;1.80;;;;;;;;;;6215445;23;20070;-86
2023/12/20 20:23:57;;;;;;;6.70;1.80;;;;;;;;;;6211100;23;20464;-85
2023/12/20 20:26:43;;;;;;;4.55;1.92;;;;;;;;;;6214341;23;20003;-84
2023/12/20 20:29:28;;;;;;;3.95;1.80;;;;;;;;;;6194378;23;20046;-84
2023/12/20 20:32:13;;;;;;;3.67;1.65;;;;;;;;;;6236596;23;20036;-84
2023/12/20 20:35:01;;;;;;;8.10;1.65;;;;;;;;;;6205465;23;20054;-84
2023/12/20 20:37:46;;;;;;;5.70;2.25;;;;;;;;;;6214785;23;20256;-85
2023/12/20 20:40:31;;;;;;;5.88;2.92;;;;;;;;;;6215127;23;20004;-86
2023/12/20 20:43:17;;;;;;;9.77;1.95;;;;;;;;;;6212156;23;20011;-86
2023/12/20 20:46:03;;;;;;;4.32;1.80;;;;;;;;;;6191409;23;20027;-84
2023/12/20 20:48:48;;;;;;;5.60;1.98;;;;;;;;;;6214896;23;20444;-85
2023/12/20 20:51:33;;;;;;;4.50;1.85;;;;;;;;;;6215438;23;20003;-85
2023/12/20 20:54:18;;;;;;;4.80;1.80;;;;;;;;;;6216723;23;20062;-85
2023/12/20 20:57:03;;;;;;;3.90;2.10;;;;;;;;;;6216309;23;20000;-84
2023/12/20 20:59:49;;;;;;;8.20;1.58;;;;;;;;;;6237275;23;20036;-85
2023/12/20 21:02:34;;;;;;;5.90;2.08;;;;;;;;;;6237402;23;20032;-85
2023/12/20 21:05:19;;;;;;;4.28;1.40;;;;;;;;;;6216206;23;19992;-85
2023/12/20 21:08:05;;;;;;;2.67;1.48;;;;;;;;;;6216612;23;20023;-86
2023/12/20 21:10:57;;;;;;;3.10;1.40;;;;;;;;;;6237260;22;19996;-87
2023/12/20 21:13:42;;;;;;;7.70;3.05;;;;;;;;;;6216903;23;20094;-87
2023/12/20 21:16:27;;;;;;;5.38;1.52;;;;;;;;;;6216368;23;20076;-87
2023/12/20 21:19:13;;;;;;;2.63;1.40;;;;;;;;;;6216658;23;19996;-86
2023/12/20 21:21:58;;;;;;;5.85;1.77;;;;;;;;;;6194600;23;20008;-86
2023/12/20 21:24:43;;;;;;;5.10;1.58;;;;;;;;;;6217928;23;20437;-85
2023/12/20 21:27:30;;;;;;;4.45;1.52;;;;;;;;;;6235240;23;20007;-86
2023/12/20 21:30:15;;;;;;;5.72;1.75;;;;;;;;;;6216563;23;20435;-86
2023/12/20 21:33:01;;;;;;;3.05;1.38;;;;;;;;;;6216252;23;19994;-86
2023/12/20 21:35:46;;;;;;;2.95;1.55;;;;;;;;;;6217532;23;20030;-86
2023/12/20 21:38:31;;;;;;;5.28;1.38;;;;;;;;;;6216539;23;20027;-86
2023/12/20 21:41:35;;;;;;;3.42;1.40;;;;;;;;;;6219463;23;20465;-86
2023/12/20 21:44:28;;;;;;;2.38;1.48;;;;;;;;;;6124156;23;19994;-85
2023/12/20 21:47:13;;;;;;;3.78;1.30;;;;;;;;;;6216157;23;20004;-86
2023/12/20 21:49:58;;;;;;;3.72;1.30;;;;;;;;;;6214730;23;19996;-85
2023/12/20 21:52:43;;;;;;;3.63;1.30;;;;;;;;;;6236287;23;20429;-86
2023/12/20 21:55:29;;;;;;;3.85;1.38;;;;;;;;;;6216086;23;20031;-86
2023/12/20 21:58:17;;;;;;;5.00;1.35;;;;;;;;;;6216203;23;20111;-87
2023/12/20 22:01:02;;;;;;;5.57;1.60;;;;;;;;;;6216161;23;20000;-87
2023/12/20 22:03:49;;;;;;;4.00;1.52;;;;;;;;;;6216623;23;20001;-88
2023/12/20 22:06:34;;;;;;;3.92;1.42;;;;;;;;;;6238949;23;19996;-87
2023/12/20 22:09:19;;;;;;;2.42;1.38;;;;;;;;;;6215480;22;20014;-87
2023/12/20 22:12:05;;;;;;;5.65;1.52;;;;;;;;;;6214872;23;20318;-86
2023/12/20 22:14:50;;;;;;;3.28;1.30;;;;;;;;;;6215629;23;20422;-86
2023/12/20 22:17:36;;;;;;;2.33;1.15;;;;;;;;;;6215276;23;20041;-86
2023/12/20 22:20:34;;;;;;;7.45;1.92;;;;;;;;;;6215341;23;20042;-86
2023/12/20 22:23:19;;;;;;;3.05;1.10;;;;;;;;;;6216302;23;20030;-86
2023/12/20 22:26:07;;;;;;;5.25;1.80;;;;;;;;;;6216198;23;20413;-85
2023/12/20 22:28:52;;;;;;;2.95;1.15;;;;;;;;;;6215257;23;20000;-86
2023/12/20 22:31:38;;;;;;;2.90;1.45;;;;;;;;;;6217804;23;20015;-86
2023/12/20 22:34:23;;;;;;;1.55;1.15;;;;;;;;;;6216238;23;20340;-86
2023/12/20 22:37:08;;;;;;;3.45;1.25;;;;;;;;;;6215997;23;20073;-84
2023/12/20 22:39:54;;;;;;;5.82;1.70;;;;;;;;;;6215013;23;19996;-86
2023/12/20 22:42:39;;;;;;;1.42;1.10;;;;;;;;;;6215597;23;20011;-85
2023/12/20 22:45:32;;;;;;;1.70;1.15;;;;;;;;;;6214663;23;20054;-85